1886 Cyclonic Storm NOT_NAMED (1886224N16082)


IBTrACS version v04r00. Visit IBTrACS website for data access.
Please direct all questions to the IBTrACS Q and A forum

Storm track - Intensity - Wind Radii - Intensity Data - Source Data - All data

Summary Information

Storm ID 1886224N16082
Start Aug 12 00Z
Landfall Aug 18 03Z
Max Intensity 45 kt (Aug 12 12Z)
End Aug 21 03Z
ATCF IDs
Track status Best track data.

Storm track plot

Map of storm track

Intensity plots

Map of storm track

Radial wind information

No radial wind information for this storm


Position and Intensity Table

BASIN ISO_TIME_________ NATURE LAT LON DS824 WIND
degrees north degrees east kts
NI 1886-08-12 00:00:00 TS 15.90 82.30 34
NI 03:00:00 TS 15.90 82.30 36
NI 06:00:00 TS 15.90 82.30 39
NI 09:00:00 TS 15.90 82.30 42
NI 12:00:00 TS 15.90 82.30 45
NI 15:00:00 TS 15.90 82.30 45
NI 18:00:00 TS 15.90 82.30 45
NI 21:00:00 TS 15.90 82.30 45
NI 1886-08-13 00:00:00 TS 15.90 82.30 45
NI 03:00:00 TS 15.90 82.30 45
NI 06:00:00 TS 15.90 82.30 45
NI 09:00:00 TS 15.90 82.30 45
NI 12:00:00 TS 15.90 82.30 45
NI 15:00:00 TS 15.90 82.30 45
NI 18:00:00 TS 15.88 82.27 45
NI 21:00:00 TS 15.84 82.21 45
NI 1886-08-14 00:00:00 TS 15.86 82.25 45
NI 03:00:00 TS 16.01 82.47 45
NI 06:00:00 TS 16.24 82.84 45
NI 09:00:00 TS 16.49 83.21 45
NI 12:00:00 TS 16.75 83.59 45
NI 15:00:00 TS 17.02 83.95 45
NI 18:00:00 TS 17.30 84.30 45
NI 21:00:00 TS 17.58 84.68 45
NI 1886-08-15 00:00:00 TS 17.81 84.99 45
NI 03:00:00 TS 17.92 85.13 45
NI 06:00:00 TS 17.94 85.15 45
NI 09:00:00 TS 17.94 85.15 45
NI 12:00:00 TS 17.92 85.13 45
NI 15:00:00 TS 17.90 85.10 45
NI 18:00:00 TS 17.89 85.09 45
NI 21:00:00 TS 17.87 85.07 45
NI 1886-08-16 00:00:00 TS 17.88 85.08 45
NI 03:00:00 TS 17.93 85.14 45
NI 06:00:00 TS 18.05 85.24 45
NI 09:00:00 TS 18.22 85.38 45
NI 12:00:00 TS 18.41 85.53 45
NI 15:00:00 TS 18.61 85.68 45
NI 18:00:00 TS 18.78 85.82 45
NI 21:00:00 TS 18.92 85.95 45
NI 1886-08-17 00:00:00 TS 19.03 86.06 45
NI 03:00:00 TS 19.15 86.11 45
NI 06:00:00 TS 19.26 86.12 45
NI 09:00:00 TS 19.36 86.12 45
NI 12:00:00 TS 19.45 86.11 45
NI 15:00:00 TS 19.55 86.10 41
NI 18:00:00 TS 19.64 86.12 37
NI 21:00:00 TS 19.73 86.16 33
NI 1886-08-18 00:00:00 TS 19.84 86.14 30
NI 03:00:00 TS 20.02 86.03 30
NI 06:00:00 TS 20.23 85.80 30
NI 09:00:00 TS 20.38 85.46 30
NI 12:00:00 TS 20.51 85.08 30
NI 15:00:00 TS 20.67 84.72 30
NI 18:00:00 TS 20.83 84.38 30
NI 21:00:00 TS 20.95 84.01 30
NI 1886-08-19 00:00:00 TS 21.05 83.67 30
NI 03:00:00 TS 21.13 83.37 30
NI 06:00:00 TS 21.18 83.10 30
NI 09:00:00 TS 21.22 82.82 30
NI 12:00:00 TS 21.27 82.53 30
NI 15:00:00 TS 21.35 82.25 30
NI 18:00:00 TS 21.43 81.98 30
NI 21:00:00 TS 21.50 81.74 30
NI 1886-08-20 00:00:00 TS 21.62 81.46 30
NI 03:00:00 TS 21.84 81.09 30
NI 06:00:00 TS 22.12 80.65 30
NI 09:00:00 TS 22.41 80.20 30
NI 12:00:00 TS 22.72 79.74 30
NI 15:00:00 TS 23.07 79.27 30
NI 18:00:00 TS 23.41 78.86 30
NI 21:00:00 TS 23.78 78.45 30
NI 1886-08-21 00:00:00 TS 24.15 78.07 30
NI 03:00:00 NR 24.40 77.80

Source Information

Agency Information
USA
TOKYO
CMA
HKO
NEWDELHI
REUNION
BOM
NADI
WELLINGTON
DS824 n_ind.dat:100:NOT NAMED
TD9636 cons_worldwide_trop_cyclone_18710101-19891231-004:Line=960
TD9635
NEUMANN
MLC

All available IBTrACS Data

SEASON BASIN SUBBASIN ISO_TIME_________ NATURE LAT LON DIST2LAND LANDFALL IFLAG USA SSHS DS824 LAT DS824 LON DS824 STAGE DS824 WIND TD9636 LAT TD9636 LON TD9636 STAGE STORM SPEED STORM DIR
Year degrees north degrees east km km 1 degrees north degrees east kts degrees north degrees east kts degrees
1886 NI BB 1886-08-12 00:00:00 TS 15.90 82.30 70 70 _________O____ -1 15.90 82.30 TC 34 0 0
1886 NI BB 03:00:00 TS 15.90 82.30 70 70 _________PO___ -1 15.90 82.30 TC 36 15.90 82.30 2 0 0
1886 NI BB 06:00:00 TS 15.90 82.30 70 70 _________OP___ -1 15.90 82.30 TC 39 15.90 82.30 2 0 0
1886 NI BB 09:00:00 TS 15.90 82.30 70 70 _________PP___ -1 15.90 82.30 TC 42 15.90 82.30 2 0 0
1886 NI BB 12:00:00 TS 15.90 82.30 70 70 _________OP___ -1 15.90 82.30 TC 45 15.90 82.30 2 0 0
1886 NI BB 15:00:00 TS 15.90 82.30 70 70 _________PO___ -1 15.90 82.30 TC 45 15.90 82.30 3 0 0
1886 NI BB 18:00:00 TS 15.90 82.30 70 70 _________OP___ -1 15.90 82.30 TC 45 15.90 82.30 3 0 0
1886 NI BB 21:00:00 TS 15.90 82.30 70 70 _________PP___ -1 15.90 82.30 TC 45 15.90 82.30 3 0 0
1886 NI BB 1886-08-13 00:00:00 TS 15.90 82.30 70 70 _________OP___ -1 15.90 82.30 TC 45 15.90 82.30 3 0 0
1886 NI BB 03:00:00 TS 15.90 82.30 70 70 _________PO___ -1 15.90 82.30 TC 45 15.90 82.30 3 0 0
1886 NI BB 06:00:00 TS 15.90 82.30 70 70 _________OP___ -1 15.90 82.30 TC 45 15.90 82.30 3 0 0
1886 NI BB 09:00:00 TS 15.90 82.30 70 70 _________PP___ -1 15.90 82.30 TC 45 15.90 82.30 3 0 0
1886 NI BB 12:00:00 TS 15.90 82.30 70 70 _________OP___ -1 15.90 82.30 TC 45 15.90 82.30 3 0 0
1886 NI BB 15:00:00 TS 15.90 82.30 70 70 _________PO___ -1 15.90 82.30 TC 45 15.90 82.30 3 0 239
1886 NI BB 18:00:00 TS 15.88 82.27 70 64 _________OP___ -1 15.90 82.30 TC 45 15.86 82.24 3 1 234
1886 NI BB 21:00:00 TS 15.84 82.21 74 64 _________PP___ -1 15.86 82.24 TC 45 15.82 82.19 3 0 0
1886 NI BB 1886-08-14 00:00:00 TS 15.86 82.25 64 64 _________OP___ -1 15.90 82.30 TC 45 15.83 82.19 3 3 57
1886 NI BB 03:00:00 TS 16.01 82.47 70 59 _________PO___ -1 16.11 82.65 TC 45 15.90 82.30 3 7 57
1886 NI BB 06:00:00 TS 16.24 82.84 69 69 _________OP___ -1 16.40 83.10 TC 45 16.08 82.57 3 9 56
1886 NI BB 09:00:00 TS 16.49 83.21 91 91 _________PP___ -1 16.65 83.47 TC 45 16.33 82.95 3 9 54
1886 NI BB 12:00:00 TS 16.75 83.59 99 94 _________OP___ -1 16.90 83.80 TC 45 16.61 83.38 3 9 53
1886 NI BB 15:00:00 TS 17.02 83.95 107 100 _________PO___ -1 17.15 84.10 TC 45 16.90 83.80 3 9 51
1886 NI BB 18:00:00 TS 17.30 84.30 107 94 _________OP___ -1 17.40 84.40 TC 45 17.19 84.19 3 9 51
1886 NI BB 21:00:00 TS 17.58 84.68 100 99 _________PP___ -1 17.69 84.79 TC 45 17.48 84.56 3 8 52
1886 NI BB 1886-08-15 00:00:00 TS 17.81 84.99 107 99 _________OP___ -1 17.90 85.10 TC 45 17.72 84.88 3 5 52
1886 NI BB 03:00:00 TS 17.92 85.13 107 107 _________PO___ -1 17.94 85.15 TC 45 17.90 85.10 3 2 51
1886 NI BB 06:00:00 TS 17.94 85.15 107 107 _________OP___ -1 17.90 85.10 TC 45 17.97 85.19 3 0 0
1886 NI BB 09:00:00 TS 17.94 85.15 107 107 _________PP___ -1 17.90 85.10 TC 45 17.97 85.20 3 0 0
1886 NI BB 12:00:00 TS 17.92 85.13 107 107 _________OP___ -1 17.90 85.10 TC 45 17.94 85.15 3 1 228
1886 NI BB 15:00:00 TS 17.90 85.10 107 107 _________PO___ -1 17.90 85.10 TC 45 17.90 85.10 3 0 235
1886 NI BB 18:00:00 TS 17.89 85.09 107 107 _________OP___ -1 17.90 85.10 TC 45 17.88 85.08 3 0 221
1886 NI BB 21:00:00 TS 17.87 85.07 107 107 _________PP___ -1 17.88 85.09 TC 45 17.85 85.06 3 0 0
1886 NI BB 1886-08-16 00:00:00 TS 17.88 85.08 107 107 _________OP___ -1 17.90 85.10 TC 45 17.86 85.06 3 1 43
1886 NI BB 03:00:00 TS 17.93 85.14 107 107 _________PO___ -1 17.97 85.18 TC 45 17.90 85.10 3 2 42
1886 NI BB 06:00:00 TS 18.05 85.24 99 99 _________OP___ -1 18.10 85.30 TC 45 18.01 85.19 3 4 39
1886 NI BB 09:00:00 TS 18.22 85.38 107 101 _________PP___ -1 18.29 85.44 TC 45 18.16 85.31 3 5 37
1886 NI BB 12:00:00 TS 18.41 85.53 104 104 _________OP___ -1 18.50 85.60 TC 45 18.33 85.45 3 5 36
1886 NI BB 15:00:00 TS 18.61 85.68 113 98 _________PO___ -1 18.72 85.76 TC 45 18.50 85.60 3 5 37
1886 NI BB 18:00:00 TS 18.78 85.82 98 94 _________OP___ -1 18.90 85.90 TC 45 18.66 85.75 3 4 40
1886 NI BB 21:00:00 TS 18.92 85.95 100 91 _________PP___ -1 19.01 86.02 TC 45 18.82 85.89 3 3 41
1886 NI BB 1886-08-17 00:00:00 TS 19.03 86.06 94 84 _________OP___ -1 19.10 86.10 TC 45 18.96 86.01 3 3 31
1886 NI BB 03:00:00 TS 19.15 86.11 74 64 _________PO___ -1 19.20 86.12 TC 45 19.10 86.10 3 2 13
1886 NI BB 06:00:00 TS 19.26 86.12 64 54 _________OP___ -1 19.30 86.10 TC 45 19.21 86.14 3 2 0
1886 NI BB 09:00:00 TS 19.36 86.12 54 54 _________PP___ -1 19.40 86.10 TC 45 19.31 86.14 3 2 354
1886 NI BB 12:00:00 TS 19.45 86.11 44 44 _________OP___ -1 19.50 86.10 TC 45 19.41 86.12 3 2 353
1886 NI BB 15:00:00 TS 19.55 86.10 33 33 _________PO___ -1 19.60 86.10 TC 41 19.50 86.10 3 2 0
1886 NI BB 18:00:00 TS 19.64 86.12 33 22 _________OP___ -1 19.70 86.10 TC 37 19.59 86.15 3 2 17
1886 NI BB 21:00:00 TS 19.73 86.16 24 11 _________PP___ -1 19.78 86.13 TC 33 19.68 86.19 3 2 0
1886 NI BB 1886-08-18 00:00:00 TS 19.84 86.14 11 0 _________OP___ -1 19.90 86.10 TC 30 19.78 86.19 3 3 338
1886 NI BB 03:00:00 TS 20.02 86.03 0 0 _________PO___ -1 20.15 85.96 TC 30 19.90 86.10 1 5 320
1886 NI BB 06:00:00 TS 20.23 85.80 0 0 _________OP___ -1 20.40 85.70 TC 30 20.06 85.89 1 6 304
1886 NI BB 09:00:00 TS 20.38 85.46 0 0 _________PP___ -1 20.52 85.32 TC 30 20.24 85.61 1 7 293
1886 NI BB 12:00:00 TS 20.51 85.08 0 0 _________OP___ -1 20.60 84.90 TC 30 20.43 85.26 1 8 293
1886 NI BB 15:00:00 TS 20.67 84.72 0 0 _________PO___ -1 20.75 84.54 TC 30 20.60 84.90 1 7 295
1886 NI BB 18:00:00 TS 20.83 84.38 0 0 _________OP___ -1 20.90 84.20 TC 30 20.75 84.55 1 7 293
1886 NI BB 21:00:00 TS 20.95 84.01 0 0 _________PP___ -1 21.02 83.83 TC 30 20.89 84.19 1 7 289
1886 NI BB 1886-08-19 00:00:00 TS 21.05 83.67 0 0 _________OP___ -1 21.10 83.50 TC 30 21.00 83.84 1 6 286
1886 NI BB 03:00:00 TS 21.13 83.37 0 0 _________PO___ -1 21.16 83.24 TC 30 21.10 83.50 1 5 284
1886 NI BB 06:00:00 TS 21.18 83.10 0 0 _________OP___ -1 21.20 83.00 TC 30 21.16 83.20 1 5 281
1886 NI BB 09:00:00 TS 21.22 82.82 0 0 _________PP___ -1 21.24 82.71 TC 30 21.21 82.93 1 5 280
1886 NI BB 12:00:00 TS 21.27 82.53 0 0 _________OP___ -1 21.30 82.40 TC 30 21.25 82.66 1 5 283
1886 NI BB 15:00:00 TS 21.35 82.25 0 0 _________PO___ -1 21.39 82.09 TC 30 21.30 82.40 1 5 286
1886 NI BB 18:00:00 TS 21.43 81.98 0 0 _________OP___ -1 21.50 81.80 TC 30 21.35 82.15 1 5 288
1886 NI BB 21:00:00 TS 21.50 81.74 0 0 _________PP___ -1 21.57 81.57 TC 30 21.42 81.90 1 5 292
1886 NI BB 1886-08-20 00:00:00 TS 21.62 81.46 0 0 _________OP___ -1 21.70 81.30 TC 30 21.53 81.62 1 7 299
1886 NI BB 03:00:00 TS 21.84 81.09 0 0 _________PO___ -1 21.97 80.88 TC 30 21.70 81.30 1 9 303
1886 NI BB 06:00:00 TS 22.12 80.65 0 0 _________OP___ -1 22.30 80.40 TC 30 21.93 80.90 1 10 305
1886 NI BB 09:00:00 TS 22.41 80.20 0 0 _________PP___ -1 22.59 79.95 TC 30 22.22 80.45 1 10 306
1886 NI BB 12:00:00 TS 22.72 79.74 0 0 _________OP___ -1 22.90 79.50 TC 30 22.55 79.97 1 11 308
1886 NI BB 15:00:00 TS 23.07 79.27 0 0 _________PO___ -1 23.23 79.04 TC 30 22.90 79.50 1 11 310
1886 NI BB 18:00:00 TS 23.41 78.86 0 0 _________OP___ -1 23.60 78.60 TC 30 23.27 79.05 1 10 313
1886 NI BB 21:00:00 TS 23.78 78.45 0 0 _________PP___ -1 23.99 78.19 TC 30 23.64 78.62 1 10 316
1886 NI BB 1886-08-21 00:00:00 TS 24.15 78.07 0 0 _________OP___ -1 24.40 77.80 TC 30 24.02 78.21 1 9 316
1886 NI AS 03:00:00 NR 24.40 77.80 0 __________O___ -1 TC 24.40 77.80 1 7 316